createdAt,value
2019-03-27T00:00:44.990Z,5.25
2019-03-27T00:01:44.974Z,5.23
2019-03-27T00:02:44.962Z,5.23
2019-03-27T00:03:44.969Z,5.21
2019-03-27T00:04:44.951Z,5.25
2019-03-27T00:05:44.947Z,5.18
2019-03-27T00:06:44.926Z,5.25
2019-03-27T00:07:44.907Z,5.12
2019-03-27T00:08:44.903Z,5.15
2019-03-27T00:09:44.893Z,5.23
2019-03-27T00:10:44.881Z,5.11
2019-03-27T00:11:44.869Z,5.14
2019-03-27T00:12:44.865Z,5.08
2019-03-27T00:13:44.853Z,5.04
2019-03-27T00:14:44.849Z,5.04
2019-03-27T00:15:44.839Z,5.11
2019-03-27T00:16:44.816Z,5.04
2019-03-27T00:17:44.830Z,5.07
2019-03-27T00:18:44.791Z,5.04
2019-03-27T00:19:44.785Z,5.04
2019-03-27T00:20:44.772Z,5.07
2019-03-27T00:21:44.821Z,4.99
2019-03-27T00:22:44.747Z,5.10
2019-03-27T00:23:44.736Z,5.00
2019-03-27T00:24:44.728Z,5.02
2019-03-27T00:25:44.720Z,5.04
2019-03-27T00:26:44.708Z,5.10
2019-03-27T00:27:44.698Z,5.04
2019-03-27T00:28:44.802Z,5.10
2019-03-27T00:29:44.676Z,5.11
2019-03-27T00:30:44.671Z,5.08
2019-03-27T00:31:44.667Z,5.05
2019-03-27T00:32:44.675Z,5.12
2019-03-27T00:33:44.633Z,5.08
2019-03-27T00:34:44.631Z,5.05
2019-03-27T00:35:44.610Z,5.04
2019-03-27T00:36:44.599Z,5.00
2019-03-27T00:37:44.586Z,5.02
2019-03-27T00:38:44.587Z,4.99
2019-03-27T00:39:44.587Z,5.04
2019-03-27T00:40:44.560Z,4.93
2019-03-27T00:41:44.569Z,4.93
2019-03-27T00:42:44.539Z,4.90
2019-03-27T00:43:44.535Z,4.87
2019-03-27T00:44:44.536Z,4.92
2019-03-27T00:45:44.509Z,4.89
2019-03-27T00:46:44.494Z,4.89
2019-03-27T00:47:44.482Z,4.89
2019-03-27T00:48:44.485Z,4.86
2019-03-27T00:49:44.467Z,4.89
2019-03-27T00:50:44.466Z,4.75
2019-03-27T00:51:44.440Z,4.80
2019-03-27T00:52:44.429Z,4.74
2019-03-27T00:53:44.418Z,4.77
2019-03-27T00:54:44.418Z,4.75
2019-03-27T00:55:44.396Z,4.80
2019-03-27T00:56:44.396Z,4.80
2019-03-27T00:57:44.411Z,4.75
2019-03-27T00:58:44.363Z,4.82
2019-03-27T00:59:44.375Z,4.73
2019-03-27T01:00:44.338Z,4.71
2019-03-27T01:01:44.335Z,4.77
2019-03-27T01:02:44.321Z,4.71
2019-03-27T01:03:44.310Z,4.74
2019-03-27T01:04:44.303Z,4.73
2019-03-27T01:05:44.301Z,4.68
2019-03-27T01:06:44.283Z,4.73
2019-03-27T01:07:44.265Z,4.75
2019-03-27T01:08:44.256Z,4.74
2019-03-27T01:09:44.247Z,4.74
2019-03-27T01:10:44.235Z,4.70
2019-03-27T01:11:44.223Z,4.70
2019-03-27T01:12:44.224Z,4.74
2019-03-27T01:13:44.212Z,4.74
2019-03-27T01:14:44.189Z,4.74
2019-03-27T01:15:44.195Z,4.75
2019-03-27T01:16:44.173Z,4.73
2019-03-27T01:17:44.160Z,4.73
2019-03-27T01:18:44.151Z,4.67
2019-03-27T01:19:44.145Z,4.71
2019-03-27T01:20:44.129Z,4.73
2019-03-27T01:21:44.119Z,4.71
2019-03-27T01:22:44.107Z,4.73
2019-03-27T01:23:44.102Z,4.75
2019-03-27T01:24:44.099Z,4.74
2019-03-27T01:25:44.080Z,4.71
2019-03-27T01:26:44.102Z,4.73
2019-03-27T01:27:44.053Z,4.74
2019-03-27T01:28:44.048Z,4.77
2019-03-27T01:29:44.037Z,4.84
2019-03-27T01:30:44.031Z,4.78
2019-03-27T01:31:44.030Z,4.87
2019-03-27T01:32:44.002Z,4.74
2019-03-27T01:33:44.008Z,4.73
2019-03-27T01:34:43.980Z,4.73
2019-03-27T01:35:43.978Z,4.78
2019-03-27T01:36:43.952Z,4.74
2019-03-27T01:37:43.948Z,4.75
2019-03-27T01:38:43.944Z,4.74
2019-03-27T01:39:43.942Z,4.77
2019-03-27T01:40:43.925Z,4.74
2019-03-27T01:41:43.918Z,4.80
2019-03-27T01:42:43.889Z,4.73
2019-03-27T01:43:43.890Z,4.82
2019-03-27T01:44:43.879Z,4.87
2019-03-27T01:45:52.891Z,4.71
2019-03-27T01:46:44.848Z,4.86
2019-03-27T01:47:43.843Z,4.74
2019-03-27T01:48:43.947Z,4.73
2019-03-27T01:49:43.814Z,4.75
2019-03-27T01:50:43.808Z,4.78
2019-03-27T01:51:43.795Z,4.71
2019-03-27T01:52:43.789Z,4.70
2019-03-27T01:53:43.772Z,4.80
2019-03-27T01:54:43.759Z,4.70
2019-03-27T01:55:43.758Z,4.75
2019-03-27T01:56:43.742Z,4.71
2019-03-27T01:57:43.734Z,4.75
2019-03-27T01:58:43.724Z,4.73
2019-03-27T01:59:43.724Z,4.70
2019-03-27T02:00:43.717Z,4.70
2019-03-27T02:01:43.690Z,4.73
2019-03-27T02:02:43.675Z,4.74
2019-03-27T02:03:43.666Z,4.59
2019-03-27T02:04:43.657Z,4.58
2019-03-27T02:05:43.656Z,4.63
2019-03-27T02:06:43.635Z,4.59
2019-03-27T02:07:43.637Z,4.60
2019-03-27T02:08:43.615Z,4.56
2019-03-27T02:09:43.602Z,4.59
2019-03-27T02:10:43.659Z,4.58
2019-03-27T02:11:43.583Z,4.55
2019-03-27T02:12:43.569Z,4.58
2019-03-27T02:13:43.569Z,4.60
2019-03-27T02:14:43.551Z,4.60
2019-03-27T02:15:43.545Z,4.58
2019-03-27T02:16:43.524Z,4.58
2019-03-27T02:17:43.537Z,4.60
2019-03-27T02:18:43.537Z,4.58
2019-03-27T02:19:43.497Z,4.55
2019-03-27T02:20:43.512Z,4.52
2019-03-27T02:21:43.479Z,4.56
2019-03-27T02:22:43.461Z,4.55
2019-03-27T02:23:43.454Z,4.49
2019-03-27T02:24:43.473Z,4.45
2019-03-27T02:25:43.462Z,4.44
2019-03-27T02:26:43.442Z,4.58
2019-03-27T02:27:43.425Z,4.60
2019-03-27T02:28:43.402Z,4.49
2019-03-27T02:29:43.388Z,4.52
2019-03-27T02:30:43.387Z,4.58
2019-03-27T02:31:43.377Z,4.56
2019-03-27T02:32:43.366Z,4.60
2019-03-27T02:33:43.354Z,4.59
2019-03-27T02:34:43.344Z,4.56
2019-03-27T02:35:43.351Z,4.53
2019-03-27T02:36:43.312Z,4.59
2019-03-27T02:37:43.307Z,4.56
2019-03-27T02:38:43.287Z,4.59
2019-03-27T02:39:43.294Z,4.55
2019-03-27T02:40:43.272Z,4.53
2019-03-27T02:41:43.258Z,4.53
2019-03-27T02:42:43.257Z,4.53
2019-03-27T02:43:43.257Z,4.58
2019-03-27T02:44:43.245Z,4.53
2019-03-27T02:45:43.279Z,4.59
2019-03-27T02:46:43.204Z,4.66
2019-03-27T02:47:43.192Z,4.66
2019-03-27T02:48:43.184Z,4.60
2019-03-27T02:49:43.189Z,4.53
2019-03-27T02:50:43.177Z,4.59
2019-03-27T02:51:43.152Z,4.53
2019-03-27T02:52:43.140Z,4.58
2019-03-27T02:53:43.310Z,4.63
2019-03-27T02:54:43.124Z,4.62
2019-03-27T02:55:43.117Z,4.66
2019-03-27T02:56:43.104Z,4.67
2019-03-27T02:57:43.088Z,4.58
2019-03-27T02:58:43.123Z,4.70
2019-03-27T02:59:43.084Z,4.71
2019-03-27T03:00:43.126Z,4.74
2019-03-27T03:01:43.048Z,4.74
2019-03-27T03:02:43.042Z,4.73
2019-03-27T03:03:43.070Z,4.68
2019-03-27T03:04:43.018Z,4.70
2019-03-27T03:05:43.018Z,4.59
2019-03-27T03:06:42.995Z,4.68
2019-03-27T03:07:42.984Z,4.63
2019-03-27T03:08:42.983Z,4.66
2019-03-27T03:09:42.958Z,4.59
2019-03-27T03:10:45.451Z,4.55
2019-03-27T03:11:42.940Z,4.63
2019-03-27T03:12:42.936Z,4.63
2019-03-27T03:13:42.919Z,4.62
2019-03-27T03:14:42.914Z,4.56
2019-03-27T03:15:42.902Z,4.58
2019-03-27T03:16:43.506Z,4.62
2019-03-27T03:17:42.880Z,4.58
2019-03-27T03:18:42.869Z,4.58
2019-03-27T03:19:42.849Z,4.55
2019-03-27T03:20:42.866Z,4.59
2019-03-27T03:21:42.838Z,4.66
2019-03-27T03:22:42.852Z,4.71
2019-03-27T03:23:42.826Z,4.70
2019-03-27T03:24:42.808Z,4.73
2019-03-27T03:25:42.801Z,4.75
2019-03-27T03:26:42.781Z,4.67
2019-03-27T03:27:42.767Z,4.52
2019-03-27T03:28:42.768Z,4.58
2019-03-27T03:29:42.789Z,4.56
2019-03-27T03:30:42.762Z,4.66
2019-03-27T03:31:42.944Z,4.66
2019-03-27T03:32:42.722Z,4.66
2019-03-27T03:33:42.731Z,4.66
2019-03-27T03:34:42.694Z,4.62
2019-03-27T03:35:42.700Z,4.58
2019-03-27T03:36:42.667Z,4.59
2019-03-27T03:37:42.715Z,4.60
2019-03-27T03:38:42.646Z,4.66
2019-03-27T03:39:42.641Z,4.66
2019-03-27T03:40:42.667Z,4.59
2019-03-27T03:41:42.638Z,4.62
2019-03-27T03:42:42.611Z,4.59
2019-03-27T03:43:42.599Z,4.52
2019-03-27T03:44:42.580Z,4.52
2019-03-27T03:45:42.573Z,4.55
2019-03-27T03:46:58.390Z,4.45
2019-03-27T03:47:43.556Z,4.41
2019-03-27T03:48:42.543Z,4.48
2019-03-27T03:49:42.557Z,4.41
2019-03-27T03:50:42.519Z,4.41
2019-03-27T03:51:42.529Z,4.42
2019-03-27T03:52:45.824Z,4.45
2019-03-27T03:53:42.488Z,4.42
2019-03-27T03:54:42.491Z,4.38
2019-03-27T03:55:42.500Z,4.40
2019-03-27T03:56:42.475Z,4.37
2019-03-27T03:57:42.445Z,4.40
2019-03-27T03:58:43.133Z,4.40
2019-03-27T03:59:42.434Z,4.52
2019-03-27T04:00:42.414Z,4.45
2019-03-27T04:01:42.432Z,4.52
2019-03-27T04:02:42.389Z,4.48
2019-03-27T04:03:42.380Z,4.52
2019-03-27T04:04:42.365Z,4.40
2019-03-27T04:05:42.419Z,4.50
2019-03-27T04:06:42.362Z,4.52
2019-03-27T04:07:42.349Z,4.53
2019-03-27T04:08:42.342Z,4.58
2019-03-27T04:09:42.332Z,4.62
2019-03-27T04:10:42.305Z,4.62
2019-03-27T04:11:42.316Z,4.63
2019-03-27T04:12:42.291Z,4.67
2019-03-27T04:13:42.274Z,4.70
2019-03-27T04:14:42.271Z,4.59
2019-03-27T04:15:42.257Z,4.60
2019-03-27T04:16:42.255Z,4.68
2019-03-27T04:17:42.232Z,4.70
2019-03-27T04:18:42.222Z,4.66
2019-03-27T04:19:42.216Z,4.67
2019-03-27T04:20:42.222Z,4.66
2019-03-27T04:21:42.203Z,4.66
2019-03-27T04:22:42.183Z,4.58
2019-03-27T04:23:42.172Z,4.62
2019-03-27T04:24:42.162Z,4.63
2019-03-27T04:26:06.892Z,4.63
2019-03-27T04:26:43.153Z,4.59
2019-03-27T04:27:42.188Z,4.53
2019-03-27T04:28:42.118Z,4.59
2019-03-27T04:29:42.101Z,4.59
2019-03-27T04:30:42.177Z,4.52
2019-03-27T04:31:42.119Z,4.49
2019-03-27T04:32:42.074Z,4.56
2019-03-27T04:33:42.062Z,4.56
2019-03-27T04:34:42.083Z,4.56
2019-03-27T04:35:42.069Z,4.56
2019-03-27T04:36:42.074Z,4.55
2019-03-27T04:37:42.040Z,4.58
2019-03-27T04:38:42.017Z,4.62
2019-03-27T04:39:41.991Z,4.63
2019-03-27T04:40:41.988Z,4.60
2019-03-27T04:41:42.098Z,4.58
2019-03-27T04:42:41.982Z,4.60
2019-03-27T04:43:41.962Z,4.62
2019-03-27T04:44:41.944Z,4.56
2019-03-27T04:45:41.944Z,4.67
2019-03-27T04:46:42.038Z,4.63
2019-03-27T04:47:41.918Z,4.59
2019-03-27T04:48:41.905Z,4.53
2019-03-27T04:49:41.905Z,4.63
2019-03-27T04:50:41.874Z,4.60
2019-03-27T04:51:41.874Z,4.60
2019-03-27T04:52:41.880Z,4.62
2019-03-27T04:53:41.845Z,4.58
2019-03-27T04:54:41.830Z,4.60
2019-03-27T04:55:42.625Z,4.58
2019-03-27T04:56:41.833Z,4.58
2019-03-27T04:57:41.805Z,4.53
2019-03-27T04:58:41.791Z,4.53
2019-03-27T04:59:41.782Z,4.52
2019-03-27T05:00:41.777Z,4.52
2019-03-27T05:01:41.773Z,4.49
2019-03-27T05:02:41.750Z,4.50
2019-03-27T05:03:41.744Z,4.50
2019-03-27T05:04:41.722Z,4.34
2019-03-27T05:05:41.712Z,4.42
2019-03-27T05:06:41.718Z,4.45
2019-03-27T05:07:41.699Z,4.41
2019-03-27T05:08:41.690Z,4.40
2019-03-27T05:09:41.678Z,4.40
2019-03-27T05:10:41.715Z,4.50
2019-03-27T05:11:41.663Z,4.50
2019-03-27T05:12:41.645Z,4.50
2019-03-27T05:13:41.639Z,4.48
2019-03-27T05:14:41.628Z,4.42
2019-03-27T05:15:41.666Z,4.45
2019-03-27T05:16:41.611Z,4.49
2019-03-27T05:17:46.266Z,4.44
2019-03-27T05:18:42.671Z,4.56
2019-03-27T05:19:41.569Z,4.48
2019-03-27T05:20:41.549Z,4.55
2019-03-27T05:21:41.541Z,4.59
2019-03-27T05:22:41.553Z,4.59
2019-03-27T05:23:41.526Z,4.62
2019-03-27T05:24:41.585Z,4.60
2019-03-27T05:25:41.522Z,4.75
2019-03-27T05:26:41.490Z,4.73
2019-03-27T05:27:41.500Z,4.73
2019-03-27T05:28:41.482Z,4.75
2019-03-27T05:29:41.461Z,4.73
2019-03-27T05:30:41.465Z,4.70
2019-03-27T05:31:41.463Z,4.71
2019-03-27T05:32:41.420Z,4.73
2019-03-27T05:33:41.419Z,4.67
2019-03-27T05:34:41.407Z,4.77
2019-03-27T05:35:41.398Z,4.71
2019-03-27T05:36:41.397Z,4.68
2019-03-27T05:37:41.393Z,4.63
2019-03-27T05:38:41.458Z,4.67
2019-03-27T05:39:41.351Z,4.66
2019-03-27T05:40:41.340Z,4.66
2019-03-27T05:41:41.337Z,4.58
2019-03-27T05:42:41.317Z,4.62
2019-03-27T05:43:41.312Z,4.71
2019-03-27T05:44:41.299Z,4.73
2019-03-27T05:45:41.294Z,4.71
2019-03-27T05:46:41.299Z,4.77
2019-03-27T05:47:41.264Z,4.68
2019-03-27T05:48:41.253Z,4.75
2019-03-27T05:49:41.244Z,4.73
2019-03-27T05:50:41.235Z,4.77
2019-03-27T05:51:41.247Z,4.70
2019-03-27T05:52:41.239Z,4.74
2019-03-27T05:53:41.280Z,4.75
2019-03-27T05:54:41.196Z,4.74
2019-03-27T05:55:41.210Z,4.73
2019-03-27T05:56:41.183Z,4.77
2019-03-27T05:57:41.170Z,4.89
2019-03-27T05:58:41.144Z,4.86
2019-03-27T05:59:41.157Z,4.80
2019-03-27T06:00:41.139Z,4.87
2019-03-27T06:01:41.127Z,4.86
2019-03-27T06:02:41.117Z,4.96
2019-03-27T06:03:41.105Z,4.87
2019-03-27T06:04:41.081Z,4.96
2019-03-27T06:05:41.068Z,4.89
2019-03-27T06:06:41.094Z,4.90
2019-03-27T06:07:41.045Z,4.94
2019-03-27T06:08:41.038Z,4.99
2019-03-27T06:09:41.091Z,5.04
2019-03-27T06:10:41.024Z,5.00
2019-03-27T06:11:41.002Z,5.08
2019-03-27T06:12:41.006Z,5.14
2019-03-27T06:13:40.981Z,5.17
2019-03-27T06:14:41.050Z,5.14
2019-03-27T06:15:40.963Z,5.12
2019-03-27T06:16:40.954Z,5.10
2019-03-27T06:17:40.951Z,5.11
2019-03-27T06:18:40.940Z,5.08
2019-03-27T06:19:40.919Z,5.10
2019-03-27T06:20:40.916Z,5.23
2019-03-27T06:21:40.931Z,5.23
2019-03-27T06:22:40.988Z,5.18
2019-03-27T06:23:40.878Z,5.18
2019-03-27T06:24:40.866Z,5.23
2019-03-27T06:25:40.872Z,5.18
2019-03-27T06:26:40.849Z,5.25
2019-03-27T06:27:40.839Z,5.26
2019-03-27T06:28:40.841Z,5.23
2019-03-27T06:29:40.847Z,5.23
2019-03-27T06:30:40.799Z,5.26
2019-03-27T06:31:40.791Z,5.20
2019-03-27T06:32:40.813Z,5.21
2019-03-27T06:33:40.779Z,5.23
2019-03-27T06:34:40.769Z,5.17
2019-03-27T06:35:40.752Z,5.23
2019-03-27T06:36:40.746Z,5.08
2019-03-27T06:37:40.740Z,5.12
2019-03-27T06:38:40.731Z,5.15
2019-03-27T06:39:40.715Z,5.15
2019-03-27T06:40:40.748Z,5.20
2019-03-27T06:41:40.684Z,5.23
2019-03-27T06:42:40.685Z,5.23
2019-03-27T06:43:40.696Z,5.28
2019-03-27T06:44:40.656Z,5.28
2019-03-27T06:45:40.659Z,5.30
2019-03-27T06:46:40.650Z,5.25
2019-03-27T06:47:40.642Z,5.39
2019-03-27T06:48:40.606Z,5.46
2019-03-27T06:49:40.606Z,5.41
2019-03-27T06:50:40.593Z,5.48
2019-03-27T06:51:40.726Z,5.43
2019-03-27T06:52:40.575Z,5.46
2019-03-27T06:53:40.552Z,5.43
2019-03-27T06:54:40.545Z,5.51
2019-03-27T06:55:40.542Z,5.51
2019-03-27T06:56:40.525Z,5.62
2019-03-27T06:57:40.519Z,5.65
2019-03-27T06:58:53.556Z,5.56
2019-03-27T06:59:41.499Z,5.62
2019-03-27T07:00:40.478Z,5.66
2019-03-27T07:01:40.480Z,5.69
2019-03-27T07:02:40.460Z,5.66
2019-03-27T07:03:40.476Z,5.79
2019-03-27T07:04:40.453Z,5.75
2019-03-27T07:05:40.425Z,5.79
2019-03-27T07:06:40.424Z,5.79
2019-03-27T07:07:40.423Z,5.84
2019-03-27T07:08:40.466Z,5.84
2019-03-27T07:09:42.547Z,5.82
2019-03-27T07:10:40.383Z,5.84
2019-03-27T07:11:40.368Z,5.87
2019-03-27T07:12:40.373Z,5.98
2019-03-27T07:13:40.341Z,5.83
2019-03-27T07:14:40.350Z,5.97
2019-03-27T07:15:40.319Z,5.98
2019-03-27T07:16:40.315Z,5.90
2019-03-27T07:17:40.309Z,5.90
2019-03-27T07:18:40.751Z,5.99
2019-03-27T07:19:40.282Z,5.93
2019-03-27T07:20:41.110Z,5.99
2019-03-27T07:21:40.273Z,6.04
2019-03-27T07:22:40.269Z,5.98
2019-03-27T07:23:40.264Z,6.04
2019-03-27T07:24:40.227Z,6.05
2019-03-27T07:25:40.224Z,6.05
2019-03-27T07:26:40.209Z,6.02
2019-03-27T07:27:40.266Z,6.05
2019-03-27T07:28:40.196Z,6.04
2019-03-27T07:29:40.175Z,6.11
2019-03-27T07:30:40.163Z,6.17
2019-03-27T07:31:40.163Z,6.14
2019-03-27T07:32:40.156Z,6.16
2019-03-27T07:33:40.129Z,6.20
2019-03-27T07:34:40.151Z,6.12
2019-03-27T07:35:40.114Z,6.19
2019-03-27T07:36:40.104Z,6.16
2019-03-27T07:37:40.097Z,6.17
2019-03-27T07:38:40.077Z,6.24
2019-03-27T07:39:40.087Z,6.14
2019-03-27T07:40:40.065Z,6.24
2019-03-27T07:41:40.062Z,6.20
2019-03-27T07:42:40.058Z,6.27
2019-03-27T07:43:40.028Z,6.36
2019-03-27T07:44:40.015Z,6.33
2019-03-27T07:45:40.007Z,6.30
2019-03-27T07:46:39.997Z,6.30
2019-03-27T07:47:39.996Z,6.35
2019-03-27T07:48:52.958Z,6.36
2019-03-27T07:49:40.982Z,6.42
2019-03-27T07:50:39.957Z,6.46
2019-03-27T07:51:39.959Z,6.49
2019-03-27T07:52:39.950Z,6.44
2019-03-27T07:53:39.920Z,6.41
2019-03-27T07:54:39.909Z,6.48
2019-03-27T07:55:39.910Z,6.45
2019-03-27T07:56:39.939Z,6.44
2019-03-27T07:57:39.914Z,6.52
2019-03-27T07:58:39.939Z,6.57
2019-03-27T07:59:39.893Z,6.56
2019-03-27T08:00:39.845Z,6.63
2019-03-27T08:01:39.844Z,6.60
2019-03-27T08:02:39.832Z,6.59
2019-03-27T08:03:39.828Z,6.62
2019-03-27T08:04:39.816Z,6.60
2019-03-27T08:05:39.800Z,6.66
2019-03-27T08:06:39.791Z,6.64
2019-03-27T08:07:39.785Z,6.74
2019-03-27T08:08:39.764Z,6.77
2019-03-27T08:09:39.759Z,6.81
2019-03-27T08:10:39.740Z,6.72
2019-03-27T08:11:39.897Z,6.84
2019-03-27T08:12:39.729Z,6.81
2019-03-27T08:13:39.714Z,6.93
2019-03-27T08:14:39.703Z,6.95
2019-03-27T08:15:40.933Z,6.92
2019-03-27T08:16:39.689Z,6.81
2019-03-27T08:17:39.679Z,6.87
2019-03-27T08:18:39.698Z,6.88
2019-03-27T08:19:39.656Z,6.88
2019-03-27T08:20:39.680Z,6.81
2019-03-27T08:21:39.621Z,6.84
2019-03-27T08:22:39.625Z,6.88
2019-03-27T08:23:39.610Z,6.88
2019-03-27T08:24:39.602Z,6.89
2019-03-27T08:25:39.621Z,6.85
2019-03-27T08:26:39.578Z,6.99
2019-03-27T08:27:39.606Z,6.97
2019-03-27T08:28:39.552Z,7.05
2019-03-27T08:29:39.539Z,7.13
2019-03-27T08:30:39.530Z,7.17
2019-03-27T08:31:39.549Z,7.17
2019-03-27T08:32:39.539Z,7.17
2019-03-27T08:33:39.553Z,7.15
2019-03-27T08:34:39.481Z,7.20
2019-03-27T08:35:39.502Z,7.23
2019-03-27T08:36:39.463Z,7.32
2019-03-27T08:37:39.454Z,7.28
2019-03-27T08:38:39.456Z,7.29
2019-03-27T08:39:39.439Z,7.31
2019-03-27T08:40:39.429Z,7.38
2019-03-27T08:41:39.410Z,7.40
2019-03-27T08:42:39.420Z,7.40
2019-03-27T08:43:39.461Z,7.47
2019-03-27T08:44:39.375Z,7.50
2019-03-27T08:45:39.376Z,7.58
2019-03-27T08:46:39.356Z,7.56
2019-03-27T08:47:39.351Z,7.54
2019-03-27T08:48:39.504Z,7.42
2019-03-27T08:49:39.322Z,7.58
2019-03-27T08:50:39.315Z,7.63
2019-03-27T08:51:39.305Z,7.67
2019-03-27T08:52:39.291Z,7.72
2019-03-27T08:53:39.301Z,7.76
2019-03-27T08:54:39.331Z,7.70
2019-03-27T08:55:39.266Z,7.77
2019-03-27T08:56:39.253Z,7.80
2019-03-27T08:57:39.240Z,7.79
2019-03-27T08:58:39.232Z,7.85
2019-03-27T08:59:39.219Z,7.95
2019-03-27T09:00:39.206Z,7.90
2019-03-27T09:01:39.234Z,7.97
2019-03-27T09:02:39.185Z,8.00
2019-03-27T09:03:39.178Z,8.10
2019-03-27T09:04:39.168Z,8.06
2019-03-27T09:05:39.154Z,8.15
2019-03-27T09:06:39.164Z,8.23
2019-03-27T09:07:39.137Z,8.26
2019-03-27T09:08:39.128Z,8.38
2019-03-27T09:09:39.110Z,8.42
2019-03-27T09:10:39.151Z,8.56
2019-03-27T09:11:39.094Z,8.76
2019-03-27T09:12:39.076Z,8.88
2019-03-27T09:13:39.080Z,8.87
2019-03-27T09:14:39.062Z,9.02
2019-03-27T09:15:39.053Z,9.29
2019-03-27T09:16:39.049Z,9.31
2019-03-27T09:17:39.036Z,9.44
2019-03-27T09:18:39.026Z,9.62
2019-03-27T09:19:39.000Z,9.68
2019-03-27T09:20:38.991Z,9.68
2019-03-27T09:21:38.984Z,9.73
2019-03-27T09:22:38.981Z,9.79
2019-03-27T09:23:39.006Z,9.82
2019-03-27T09:24:38.954Z,9.77
2019-03-27T09:25:38.981Z,9.84
2019-03-27T09:26:38.944Z,10.05
2019-03-27T09:27:38.920Z,10.26
2019-03-27T09:28:38.928Z,10.40
2019-03-27T09:29:38.948Z,10.75
2019-03-27T09:30:38.912Z,10.90
2019-03-27T09:31:44.664Z,10.94
2019-03-27T09:32:39.898Z,11.23
2019-03-27T09:33:38.881Z,11.27
2019-03-27T09:34:38.856Z,11.33
2019-03-27T09:35:38.846Z,11.40
2019-03-27T09:36:38.824Z,11.26
2019-03-27T09:37:38.816Z,11.11
2019-03-27T09:38:38.841Z,11.04
2019-03-27T09:39:38.800Z,10.93
2019-03-27T09:40:38.807Z,10.74
2019-03-27T09:41:38.762Z,10.59
2019-03-27T09:42:38.753Z,10.41
2019-03-27T09:43:38.829Z,10.23
2019-03-27T09:44:38.748Z,10.12
2019-03-27T09:45:38.720Z,10.22
2019-03-27T09:46:38.708Z,10.23
2019-03-27T09:47:38.703Z,10.34
2019-03-27T09:48:38.688Z,10.40
2019-03-27T09:49:49.040Z,10.57
2019-03-27T09:50:39.676Z,10.78
2019-03-27T09:51:38.668Z,10.93
2019-03-27T09:52:38.732Z,10.97
2019-03-27T09:53:38.636Z,11.12
2019-03-27T09:54:38.631Z,11.36
2019-03-27T09:55:38.614Z,11.44
2019-03-27T09:56:38.607Z,11.27
2019-03-27T09:57:38.592Z,11.26
2019-03-27T09:58:38.584Z,11.22
2019-03-27T09:59:38.574Z,11.00
2019-03-27T10:00:38.561Z,10.82
2019-03-27T10:01:38.547Z,10.69
2019-03-27T10:02:38.554Z,10.35
2019-03-27T10:03:38.528Z,10.20
2019-03-27T10:04:38.525Z,9.99
2019-03-27T10:05:38.558Z,9.84
2019-03-27T10:06:38.494Z,9.72
2019-03-27T10:07:38.499Z,9.48
2019-03-27T10:08:38.491Z,9.34
2019-03-27T10:09:38.470Z,9.26
2019-03-27T10:10:38.663Z,9.18
2019-03-27T10:11:38.465Z,9.13
2019-03-27T10:12:38.429Z,9.11
2019-03-27T10:13:38.424Z,9.04
2019-03-27T10:14:38.585Z,9.10
2019-03-27T10:15:38.403Z,9.16
2019-03-27T10:16:38.386Z,9.13
2019-03-27T10:17:38.385Z,9.23
2019-03-27T10:18:38.369Z,9.26
2019-03-27T10:19:38.365Z,9.23
2019-03-27T10:20:38.357Z,9.34
2019-03-27T10:21:38.362Z,9.87
2019-03-27T10:22:38.333Z,10.22
2019-03-27T10:23:38.314Z,10.37
2019-03-27T10:24:38.316Z,10.63
2019-03-27T10:25:38.290Z,10.59
2019-03-27T10:26:38.285Z,10.57
2019-03-27T10:27:38.274Z,10.60
2019-03-27T10:28:38.263Z,10.48
2019-03-27T10:29:38.279Z,10.49
2019-03-27T10:30:38.246Z,10.44
2019-03-27T10:31:38.230Z,10.37
2019-03-27T10:32:38.223Z,10.33
2019-03-27T10:33:38.206Z,10.05
2019-03-27T10:34:38.212Z,10.12
2019-03-27T10:35:38.212Z,9.99
2019-03-27T10:36:38.190Z,9.95
2019-03-27T10:37:38.197Z,9.98
2019-03-27T10:38:41.437Z,9.86
2019-03-27T10:39:38.205Z,9.84
2019-03-27T10:40:38.172Z,9.83
2019-03-27T10:41:38.121Z,9.72
2019-03-27T10:42:38.109Z,9.79
2019-03-27T10:43:38.124Z,9.65
2019-03-27T10:44:38.115Z,9.73
2019-03-27T10:45:38.083Z,9.69
2019-03-27T10:46:38.082Z,9.83
2019-03-27T10:47:38.059Z,9.77
2019-03-27T10:48:51.448Z,9.86
2019-03-27T10:49:39.055Z,9.91
2019-03-27T10:50:38.036Z,9.98
2019-03-27T10:51:38.014Z,9.87
2019-03-27T10:52:38.008Z,9.92
2019-03-27T10:53:38.028Z,10.05
2019-03-27T10:54:38.007Z,10.46
2019-03-27T10:55:37.979Z,10.72
2019-03-27T10:56:37.960Z,10.90
2019-03-27T10:57:37.957Z,11.32
2019-03-27T10:58:37.978Z,11.80
2019-03-27T10:59:37.933Z,11.91
2019-03-27T11:00:37.949Z,12.00
2019-03-27T11:01:37.914Z,12.27
2019-03-27T11:02:37.979Z,12.58
2019-03-27T11:03:37.894Z,12.65
2019-03-27T11:04:37.874Z,12.73
2019-03-27T11:05:37.892Z,12.75
2019-03-27T11:06:37.851Z,12.87
2019-03-27T11:07:37.852Z,12.86
2019-03-27T11:08:37.836Z,13.72
2019-03-27T11:09:37.827Z,14.41
2019-03-27T11:10:37.833Z,14.36
2019-03-27T11:11:37.795Z,14.32
2019-03-27T11:12:37.885Z,14.35
2019-03-27T11:13:37.775Z,14.32
2019-03-27T11:14:38.514Z,14.20
2019-03-27T11:15:37.799Z,13.96
2019-03-27T11:16:37.773Z,13.72
2019-03-27T11:17:37.745Z,13.63
2019-03-27T11:18:37.736Z,13.49
2019-03-27T11:19:37.716Z,13.33
2019-03-27T11:20:37.722Z,13.35
2019-03-27T11:21:37.757Z,13.09
2019-03-27T11:22:37.684Z,13.08
2019-03-27T11:23:37.673Z,13.15
2019-03-27T11:24:37.666Z,13.31
2019-03-27T11:25:37.662Z,13.46
2019-03-27T11:26:37.729Z,13.54
2019-03-27T11:27:37.634Z,13.47
2019-03-27T11:28:37.633Z,13.49
2019-03-27T11:29:37.620Z,13.38
2019-03-27T11:30:37.626Z,13.25
2019-03-27T11:31:37.614Z,13.27
2019-03-27T11:32:37.587Z,13.31
2019-03-27T11:33:37.635Z,13.25
2019-03-27T11:34:37.553Z,13.25
2019-03-27T11:35:37.548Z,13.20
2019-03-27T11:36:37.571Z,13.15
2019-03-27T11:37:37.530Z,13.12
2019-03-27T11:38:37.888Z,12.95
2019-03-27T11:39:37.503Z,12.91
2019-03-27T11:40:37.532Z,12.95
2019-03-27T11:41:37.533Z,12.80
2019-03-27T11:42:37.475Z,12.68
2019-03-27T11:43:37.458Z,12.55
2019-03-27T11:44:37.457Z,12.36
2019-03-27T11:45:37.440Z,12.22
2019-03-27T11:46:37.437Z,12.06
2019-03-27T11:47:37.415Z,11.99
2019-03-27T11:48:37.421Z,12.12
2019-03-27T11:49:37.396Z,12.06
2019-03-27T11:50:44.660Z,12.20
2019-03-27T11:51:38.376Z,12.29
2019-03-27T11:52:37.360Z,12.36
2019-03-27T11:53:37.352Z,12.61
2019-03-27T11:54:37.340Z,12.86
2019-03-27T11:55:37.864Z,13.15
2019-03-27T11:56:37.323Z,13.19
2019-03-27T11:57:37.309Z,13.19
2019-03-27T11:58:37.298Z,13.20
2019-03-27T11:59:37.287Z,13.39
2019-03-27T12:00:37.329Z,13.28
2019-03-27T12:01:42.133Z,13.20
2019-03-27T12:02:38.300Z,13.15
2019-03-27T12:03:37.245Z,13.05
2019-03-27T12:04:37.240Z,12.93
2019-03-27T12:05:37.242Z,12.90
2019-03-27T12:06:37.211Z,12.87
2019-03-27T12:07:37.201Z,12.75
2019-03-27T12:08:37.190Z,12.64
2019-03-27T12:09:37.222Z,12.55
2019-03-27T12:10:37.187Z,12.28
2019-03-27T12:11:37.164Z,12.15
2019-03-27T12:12:37.152Z,11.90
2019-03-27T12:13:37.144Z,11.83
2019-03-27T12:14:37.125Z,11.81
2019-03-27T12:15:37.148Z,11.73
2019-03-27T12:16:37.161Z,11.62
2019-03-27T12:17:37.101Z,11.81
2019-03-27T12:18:37.083Z,11.81
2019-03-27T12:19:37.967Z,11.97
2019-03-27T12:20:37.072Z,12.49
2019-03-27T12:21:37.057Z,13.12
2019-03-27T12:22:37.040Z,13.77
2019-03-27T12:23:37.084Z,14.11
2019-03-27T12:24:37.023Z,14.43
2019-03-27T12:25:37.017Z,14.66
2019-03-27T12:26:37.000Z,14.81
2019-03-27T12:27:36.988Z,14.81
2019-03-27T12:28:36.986Z,14.97
2019-03-27T12:29:36.977Z,15.21
2019-03-27T12:30:36.983Z,15.49
2019-03-27T12:31:36.944Z,15.58
2019-03-27T12:32:36.936Z,15.72
2019-03-27T12:33:36.951Z,15.77
2019-03-27T12:34:37.130Z,15.58
2019-03-27T12:35:36.936Z,15.62
2019-03-27T12:36:36.895Z,15.47
2019-03-27T12:37:36.885Z,15.35
2019-03-27T12:38:36.928Z,15.68
2019-03-27T12:39:36.858Z,16.20
2019-03-27T12:40:36.872Z,16.71
2019-03-27T12:41:36.835Z,16.68
2019-03-27T12:42:36.825Z,16.12
2019-03-27T12:43:36.824Z,15.65
2019-03-27T12:44:36.807Z,15.22
2019-03-27T12:45:36.808Z,14.97
2019-03-27T12:46:36.788Z,14.85
2019-03-27T12:47:36.786Z,14.63
2019-03-27T12:48:36.764Z,14.51
2019-03-27T12:49:36.749Z,14.43
2019-03-27T12:50:36.737Z,14.29
2019-03-27T12:51:36.729Z,14.12
2019-03-27T12:52:36.722Z,13.93
2019-03-27T12:53:36.711Z,13.93
2019-03-27T12:54:36.694Z,13.74
2019-03-27T12:55:36.697Z,13.57
2019-03-27T12:56:36.705Z,13.42
2019-03-27T12:57:36.683Z,13.35
2019-03-27T12:58:36.648Z,13.25
2019-03-27T12:59:36.638Z,13.08
2019-03-27T13:00:36.707Z,12.90
2019-03-27T13:01:36.625Z,12.73
2019-03-27T13:02:36.616Z,12.61
2019-03-27T13:03:36.606Z,12.58
2019-03-27T13:04:36.585Z,12.58
2019-03-27T13:05:36.574Z,12.67
2019-03-27T13:06:36.584Z,12.62
2019-03-27T13:07:49.413Z,12.68
2019-03-27T13:08:37.551Z,12.75
2019-03-27T13:09:36.551Z,12.76
2019-03-27T13:10:36.527Z,12.86
2019-03-27T13:11:36.934Z,13.03
2019-03-27T13:12:36.523Z,13.03